Latest Weather Observations for McArthur River Mine

IDD60801

Issued at 2:31 pm CST Saturday 25 June 2016 (issued every 30 minutes, with the page automatically refreshed every 10 minutes)

About weather observations | Map of weather stations | Latest weather observations for NT | Other Formats
Station Details ID: 014704 Name: MCARTHUR RIVER MINE AIRPORT Lat: -16.44 Lon: 136.08 Height: 40.0 m
Data from the previous 72 hours. | See also: Recent months at McArthur River Mine
Date/Time
CST
Temp
°C
App
Temp
°C
Dew
Point
°C
Rel
Hum
%
Delta-T
°C
Wind Press
QNH
hPa
Press
MSL
hPa
Rain since
9am
mm
Dir  Spd
km/h
Gust
km/h
Spd
kts
Gust
kts
25/02:30pm 31.7 29.9 9.3 25 12.6 E 9 20 5 11 1012.4 1012.3 0.0
25/02:00pm 32.0 30.0 10.1 26 12.5 ENE 11 22 6 12 1012.7 1012.6 0.0
25/01:30pm 31.3 28.7 9.5 26 12.3 ENE 13 26 7 14 1013.1 1013.0 0.0
25/01:00pm 30.7 28.9 9.6 27 11.9 E 9 17 5 9 1013.7 1013.6 0.0
25/12:30pm 30.6 28.9 10.0 28 11.7 E 9 17 5 9 1014.2 1014.1 0.0
25/12:00pm 29.1 27.0 9.8 30 10.8 ESE 11 19 6 10 1014.7 1014.6 0.0
25/11:30am 28.7 26.8 10.4 32 10.4 ESE 11 22 6 12 1015.3 1015.2 0.0
25/11:00am 27.8 25.5 10.5 34 9.8 ESE 13 19 7 10 1015.6 1015.5 0.0
25/10:30am 27.2 25.1 11.3 37 9.1 ESE 13 17 7 9 1015.7 1015.6 0.0
25/10:00am 25.5 23.3 10.9 40 8.2 SE 13 19 7 10 1016.0 1015.9 0.0
25/09:30am 24.8 22.9 11.7 44 7.4 SE 13 17 7 9 1015.9 1015.8 0.0
25/09:00am 22.8 20.7 11.2 48 6.5 SSE 13 20 7 11 1015.8 1015.7 0.0
25/08:30am 20.9 19.8 12.1 57 4.9 SW 9 13 5 7 1015.9 1015.8 0.0
25/08:00am 18.4 17.9 12.6 69 3.2 WSW 7 9 4 5 1015.6 1015.5 0.0
25/07:43am 17.0 16.6 12.5 75 2.5 WSW 6 7 3 4 1015.5 1015.4 0.0
25/07:30am 16.5 16.1 12.5 77 2.2 W 6 7 3 4 1015.4 1015.3 0.0
25/07:25am 16.5 16.1 12.5 77 2.2 W 6 7 3 4 1015.5 1015.4 0.0
25/07:00am 16.2 15.6 12.4 78 2.1 WSW 7 9 4 5 1015.2 1015.1 0.0
25/06:30am 16.5 16.1 12.3 76 2.3 WSW 6 9 3 5 1014.9 1014.8 0.0
25/06:00am 17.2 17.0 12.9 76 2.4 WSW 6 7 3 4 1014.7 1014.6 0.0
25/05:30am 17.0 16.6 12.9 77 2.3 SW 7 9 4 5 1014.7 1014.6 0.0
25/05:00am 17.0 16.7 13.3 79 2.1 WSW 7 9 4 5 1014.7 1014.6 0.0
25/04:30am 17.4 17.4 13.7 79 2.1 W 6 7 3 4 1014.7 1014.6 0.0
25/04:00am 17.7 17.6 14.0 79 2.1 SSW 7 7 4 4 1014.5 1014.4 0.0
25/03:30am 18.2 18.9 14.5 79 2.1 SSE 4 6 2 3 1014.3 1014.2 0.0
25/03:00am 18.9 19.2 14.6 76 2.5 W 6 6 3 3 1014.2 1014.1 0.0
25/02:30am 19.6 20.1 15.0 75 2.7 S 6 6 3 3 1014.2 1014.1 0.0
25/02:00am 20.0 20.9 15.0 73 2.9 S 4 7 2 4 1014.3 1014.2 0.0
25/01:30am 20.5 22.4 15.7 74 2.9 CALM 0 7 0 4 1014.5 1014.4 0.0
25/01:00am 20.5 21.3 15.9 75 2.8 WSW 6 9 3 5 1014.4 1014.3 0.0
25/12:30am 20.9 21.5 15.4 71 3.3 NW 6 7 3 4 1014.2 1014.1 0.0
25/12:00am 21.7 22.7 16.4 72 3.2 W 6 7 3 4 1014.3 1014.2 0.0
 
Date/Time
CST
Temp
°C
App
Temp
°C
Dew
Point
°C
Rel
Hum
%
Delta-T
°C
Wind Press
QNH
hPa
Press
MSL
hPa
Rain since
9am
mm
Dir  Spd
km/h
Gust
km/h
Spd
kts
Gust
kts
24/11:30pm 22.5 24.7 16.5 69 3.7 CALM 0 0 0 0 1014.3 1014.2 0.0
24/11:00pm 23.5 25.8 16.8 66 4.1 CALM 0 0 0 0 1014.3 1014.2 0.0
24/10:30pm 24.4 25.4 16.9 63 4.6 ENE 7 9 4 5 1014.4 1014.3 0.0
24/10:00pm 24.8 25.7 16.5 60 5.1 ENE 7 11 4 6 1014.4 1014.3 0.0
24/09:30pm 25.3 25.9 15.9 56 5.7 NE 7 9 4 5 1014.2 1014.1 0.0
24/09:00pm 26.1 26.2 15.5 52 6.4 NNE 9 15 5 8 1014.0 1013.9 0.0
24/08:30pm 26.5 26.5 15.2 49 6.8 NNE 9 15 5 8 1013.8 1013.7 0.0
24/08:00pm 25.7 25.2 12.5 44 7.6 NNE 7 9 4 5 1013.5 1013.4 0.0
24/07:30pm 26.3 25.4 11.2 38 8.6 N 7 11 4 6 1013.2 1013.1 0.0
24/07:00pm 27.1 26.0 10.8 36 9.2 N 7 9 4 5 1012.7 1012.6 0.0
24/06:30pm 28.0 26.9 10.7 34 9.8 NNE 7 9 4 5 1012.5 1012.4 0.0
24/06:00pm 29.3 28.5 10.9 32 10.5 N 6 7 3 4 1012.3 1012.2 0.0
24/05:30pm 31.2 29.9 10.0 27 12.1 NE 7 11 4 6 1012.1 1012.0 0.0
24/05:00pm 32.0 31.1 11.2 28 12.1 NE 7 11 4 6 1011.8 1011.7 0.0
24/04:30pm 32.3 31.2 12.0 29 12.0 ENE 9 13 5 7 1011.5 1011.4 0.0
24/04:00pm 32.6 31.8 12.8 30 11.8 ENE 9 13 5 7 1011.3 1011.2 0.0
24/03:30pm 32.8 31.8 12.4 29 12.1 ENE 9 15 5 8 1011.3 1011.2 0.0
24/03:00pm 32.9 32.1 13.0 30 12.0 ENE 9 19 5 10 1011.5 1011.4 0.0
24/02:30pm 33.3 32.3 13.4 30 12.1 E 11 20 6 11 1011.8 1011.7 0.0
24/02:00pm 32.3 32.0 14.4 33 11.0 NE 9 19 5 10 1012.1 1012.0 0.0
24/01:30pm 32.3 32.9 15.3 35 10.5 SSW 6 19 3 10 1012.4 1012.3 0.0
24/01:00pm 31.3 31.3 15.3 38 9.9 SE 9 17 5 9 1013.0 1012.9 0.0
24/12:30pm 30.9 31.5 15.7 39 9.4 ESE 7 11 4 6 1013.7 1013.6 0.0
24/12:00pm 30.9 31.4 16.5 42 9.0 ENE 9 15 5 8 1014.2 1014.1 0.0
24/11:30am 29.4 30.3 16.6 46 8.0 SE 7 13 4 7 1014.7 1014.6 0.0
24/11:00am 28.8 30.3 16.7 48 7.6 NE 4 9 2 5 1014.9 1014.8 0.0
24/10:30am 27.5 28.8 16.1 49 7.0 E 4 7 2 4 1015.0 1014.9 0.0
24/10:00am 26.0 28.1 16.3 55 6.0 CALM 0 6 0 3 1015.0 1014.9 0.0
24/09:30am 23.5 24.3 15.8 62 4.7 S 6 7 3 4 1015.0 1014.9 0.0
24/09:00am 20.2 20.7 15.0 72 3.1 SW 6 7 3 4 1014.8 1014.7 0.0
24/08:30am 18.4 19.8 14.5 78 2.3 CALM 0 2 0 1 1014.6 1014.5 0.0
24/08:00am 17.5 18.8 14.0 80 2.0 CALM 0 0 0 0 1014.5 1014.4 0.0
24/07:30am 16.2 17.2 13.1 82 1.7 CALM 0 0 0 0 1014.3 1014.2 0.0
24/07:00am 15.7 16.8 13.4 86 1.3 CALM 0 0 0 0 1013.9 1013.8 0.0
24/06:30am 15.7 16.6 12.8 83 1.6 CALM 0 0 0 0 1014.0 1013.9 0.0
24/06:04am 15.9 15.8 13.4 85 1.4 NW 6 7 3 4 1013.7 1013.6 0.0
24/06:00am 15.8 15.7 13.3 85 1.4 NW 6 7 3 4 1013.6 1013.5 0.0
24/05:47am 16.1 15.8 13.4 84 1.5 NW 7 9 4 5 1013.4 1013.3 0.0
24/05:30am 16.0 15.6 13.1 83 1.6 WSW 7 9 4 5 1013.3 1013.2 0.0
24/05:00am 16.5 17.1 13.2 81 1.8 WSW 2 7 1 4 1013.3 1013.2 0.0
24/04:30am 17.1 18.3 13.8 81 1.9 CALM 0 0 0 0 1013.2 1013.1 0.0
24/04:00am 17.4 18.6 13.9 80 2.0 CALM 0 0 0 0 1013.0 1012.9 0.0
24/03:30am 17.6 18.8 14.9 84 1.6 NE 2 6 1 3 1013.1 1013.0 0.0
24/03:00am 17.6 17.8 14.3 81 1.9 WSW 6 6 3 3 1013.2 1013.1 0.0
24/02:30am 18.3 19.0 14.6 79 2.1 SSE 4 7 2 4 1013.0 1012.9 0.0
24/02:00am 18.4 18.5 14.5 78 2.3 S 7 7 4 4 1013.2 1013.1 0.0
24/01:30am 18.8 18.9 13.9 73 2.8 S 6 9 3 5 1013.4 1013.3 0.0
24/01:00am 19.8 20.4 15.2 75 2.7 S 6 7 3 4 1013.4 1013.3 0.0
24/12:41am 20.7 20.7 16.3 76 2.7 S 11 17 6 9 1013.5 1013.4 0.0
24/12:30am 20.2 18.9 14.8 71 3.2 SW 15 24 8 13 1013.3 1013.2 0.0
24/12:22am 19.4 20.5 15.7 79 2.2 WSW 4 9 2 5 1012.9 1012.8 0.0
24/12:00am 21.5 23.2 17.1 76 2.7 NNE 4 6 2 3 1012.9 1012.8 0.0
 
Date/Time
CST
Temp
°C
App
Temp
°C
Dew
Point
°C
Rel
Hum
%
Delta-T
°C
Wind Press
QNH
hPa
Press
MSL
hPa
Rain since
9am
mm
Dir  Spd
km/h
Gust
km/h
Spd
kts
Gust
kts
23/11:30pm 22.8 24.7 18.6 77 2.6 NNE 6 7 3 4 1012.9 1012.8 0.0
23/11:00pm 23.5 25.1 17.9 71 3.5 NNE 6 7 3 4 1012.9 1012.8 0.0
23/10:30pm 24.5 25.6 18.0 67 4.1 NNE 9 13 5 7 1012.9 1012.8 0.0
23/10:00pm 24.8 25.3 16.5 60 5.1 NNE 9 13 5 7 1012.7 1012.6 0.0
23/09:30pm 25.4 25.5 15.4 54 6.1 E 9 15 5 8 1012.5 1012.4 0.0
23/09:00pm 24.7 24.2 13.9 51 6.4 NE 9 11 5 6 1012.2 1012.1 0.0
23/08:30pm 24.0 23.8 11.7 46 7.0 NNE 4 7 2 4 1011.9 1011.8 0.0
23/08:00pm 22.3 21.7 8.8 42 7.2 NNW 2 9 1 5 1011.4 1011.3 0.0
23/07:30pm 24.9 23.4 8.4 35 8.9 ENE 6 7 3 4 1011.0 1010.9 0.0
23/07:00pm 26.0 24.5 8.5 33 9.5 E 6 7 3 4 1010.8 1010.7 0.0
23/06:30pm 27.4 25.6 7.8 29 10.6 E 7 9 4 5 1010.4 1010.3 0.0
23/06:00pm 30.5 29.4 8.3 25 12.3 S 4 7 2 4 1010.0 1009.9 0.0
23/05:30pm 33.2 31.1 5.7 18 14.8 WSW 6 7 3 4 1009.8 1009.7 0.0
23/05:00pm 34.1 32.9 6.4 18 15.1 NE 2 7 1 4 1009.6 1009.5 0.0
23/04:30pm 33.8 31.8 7.0 19 14.8 W 7 15 4 8 1009.3 1009.2 0.0
23/04:00pm 33.6 31.7 7.6 20 14.4 SSW 7 15 4 8 1009.2 1009.1 0.0
23/03:30pm 33.0 31.4 7.8 21 14.0 S 6 7 3 4 1009.1 1009.0 0.0
23/03:00pm 33.4 31.4 8.8 22 13.9 S 9 17 5 9 1009.3 1009.2 0.0
23/02:30pm 33.4 32.0 9.4 23 13.7 NNW 7 15 4 8 1009.6 1009.5 0.0
23/02:00pm 32.8 31.8 10.2 25 13.0 SW 6 9 3 5 1010.1 1010.0 0.0
23/01:30pm 32.4 31.4 10.4 26 12.7 WSW 6 9 3 5 1010.9 1010.8 0.0
23/01:00pm 31.9 31.1 11.1 28 12.1 NE 6 9 3 5 1011.4 1011.3 0.0
23/12:30pm 31.1 30.3 11.0 29 11.6 N 6 15 3 8 1012.1 1012.0 0.0
23/12:00pm 30.5 29.9 12.4 33 10.7 N 7 13 4 7 1012.7 1012.6 0.0
23/11:30am 28.8 28.4 13.1 38 9.3 S 7 9 4 5 1013.1 1013.0 0.0
23/11:00am 28.3 29.0 15.6 46 7.8 SE 6 7 3 4 1013.4 1013.3 0.0
23/10:30am 27.2 28.4 13.9 44 7.9 CALM 0 6 0 3 1013.9 1013.8 0.0
23/10:00am 25.5 25.9 13.7 48 7.0 SSE 4 7 2 4 1014.2 1014.1 0.0
23/09:30am 23.3 22.8 12.0 49 6.4 SSW 6 9 3 5 1014.0 1013.9 0.0
23/09:00am 21.4 20.6 11.1 52 5.7 SSW 6 7 3 4 1014.0 1013.9 0.0
23/08:30am 19.0 17.9 9.8 55 4.9 WSW 6 7 3 4 1013.9 1013.8 0.0
23/08:00am 17.2 16.0 9.4 60 4.1 WSW 6 9 3 5 1013.5 1013.4 0.0
23/07:30am 15.2 14.0 10.2 72 2.6 WSW 7 9 4 5 1013.3 1013.2 0.0
23/07:00am 13.3 12.0 10.1 81 1.7 WSW 7 9 4 5 1013.0 1012.9 0.0
23/06:30am 14.1 13.2 10.5 79 1.9 WSW 6 7 3 4 1013.0 1012.9 0.0
23/06:00am 14.5 14.8 10.9 79 1.9 CALM 0 0 0 0 1012.8 1012.7 0.0
23/05:30am 14.8 14.9 11.6 81 1.7 WSW 2 6 1 3 1012.6 1012.5 0.0
23/05:00am 14.7 13.9 10.9 78 2.0 W 6 7 3 4 1012.6 1012.5 0.0
23/04:30am 15.0 14.1 10.8 76 2.2 WSW 6 6 3 3 1012.9 1012.8 0.0
23/04:00am 15.2 14.3 10.8 75 2.3 W 6 7 3 4 1013.0 1012.9 0.0
23/03:30am 15.6 14.5 10.8 73 2.6 SW 7 9 4 5 1013.1 1013.0 0.0
23/03:00am 15.3 14.2 10.1 71 2.7 WSW 6 9 3 5 1013.2 1013.1 0.0
23/02:30am 15.6 15.1 9.5 67 3.2 S 2 7 1 4 1013.0 1012.9 0.0
23/02:00am 16.7 15.9 11.2 70 3.0 SSE 6 7 3 4 1013.3 1013.2 0.0
23/01:30am 16.3 16.3 9.7 65 3.5 CALM 0 0 0 0 1013.4 1013.3 0.0
23/01:00am 17.5 17.7 10.6 64 3.7 CALM 0 0 0 0 1013.5 1013.4 0.0
23/12:30am 17.8 18.1 10.9 64 3.7 CALM 0 0 0 0 1013.8 1013.7 0.0
23/12:00am 18.4 18.6 10.5 60 4.2 CALM 0 7 0 4 1013.8 1013.7 0.0
 
Date/Time
CST
Temp
°C
App
Temp
°C
Dew
Point
°C
Rel
Hum
%
Delta-T
°C
Wind Press
QNH
hPa
Press
MSL
hPa
Rain since
9am
mm
Dir  Spd
km/h
Gust
km/h
Spd
kts
Gust
kts
22/11:30pm 19.0 18.3 11.3 61 4.2 N 6 7 3 4 1013.6 1013.5 0.0
22/11:00pm 20.2 19.7 11.9 59 4.6 N 6 7 3 4 1013.6 1013.5 0.0
22/10:30pm 20.6 19.7 11.5 56 5.0 N 7 7 4 4 1013.6 1013.5 0.0
22/10:00pm 21.7 21.3 12.5 56 5.2 NE 6 9 3 5 1013.3 1013.2 0.0
22/09:30pm 21.3 20.3 11.1 52 5.6 NNE 7 9 4 5 1013.0 1012.9 0.0
22/09:00pm 21.5 20.8 8.7 44 6.8 ESE 2 7 1 4 1012.6 1012.5 0.0
22/08:30pm 21.7 20.2 8.6 43 6.9 NNE 6 11 3 6 1012.2 1012.1 0.0
22/08:03pm 22.6 22.2 8.3 40 7.6 CALM 0 0 0 0 1011.5 1011.4 0.0
22/08:00pm 22.6 22.3 8.7 41 7.4 CALM 0 0 0 0 1011.4 1011.3 0.0
22/07:47pm 23.2 22.9 8.5 39 7.8 CALM 0 0 0 0 1011.2 1011.1 0.0
22/07:30pm 23.8 23.3 7.8 36 8.4 CALM 0 0 0 0 1011.1 1011.0 0.0
22/07:00pm 25.2 24.8 8.2 34 9.1 CALM 0 0 0 0 1010.8 1010.7 0.0
22/06:44pm 26.2 25.7 7.7 31 9.9 CALM 0 0 0 0 1010.6 1010.5 0.0
22/06:30pm 27.0 26.5 8.0 30 10.3 CALM 0 0 0 0 1010.5 1010.4 0.0
22/06:26pm 27.3 26.9 8.2 30 10.3 CALM 0 0 0 0 1010.5 1010.4 0.0
22/06:00pm 29.3 28.0 7.8 26 11.7 NW 4 6 2 3 1010.3 1010.2 0.0
22/05:30pm 31.9 30.4 6.9 21 13.6 SSW 4 6 2 3 1010.0 1009.9 0.0
22/05:00pm 32.0 30.0 6.2 20 13.9 SSE 6 7 3 4 1009.8 1009.7 0.0
22/04:30pm 32.9 31.3 6.2 19 14.4 W 4 7 2 4 1009.7 1009.6 0.0
22/04:00pm 32.7 30.5 6.1 19 14.3 E 7 15 4 8 1009.9 1009.8 0.0
22/03:30pm 33.3 31.5 7.3 20 14.3 WSW 6 9 3 5 1010.0 1009.9 0.0
22/03:00pm 32.3 30.5 7.2 21 13.7 W 6 11 3 6 1010.3 1010.2 0.0

Other Formats:

Comma delimited format used in spreadsheet applications
http://www.bom.gov.au/fwo/IDD60801/IDD60801.94239.axf

JavaScript Object Notation format (JSON) in row-major order
http://www.bom.gov.au/fwo/IDD60801/IDD60801.94239.json